createdAt,value
2023-01-21T00:01:19.593Z,76.80
2023-01-21T00:03:46.761Z,76.80
2023-01-21T00:06:15.155Z,76.90
2023-01-21T00:08:41.861Z,76.90
2023-01-21T00:11:14.448Z,76.80
2023-01-21T00:13:41.741Z,76.80
2023-01-21T00:16:08.847Z,76.50
2023-01-21T00:18:35.531Z,77.10
2023-01-21T00:21:02.328Z,76.90
2023-01-21T00:23:29.024Z,76.70
2023-01-21T00:25:59.897Z,76.80
2023-01-21T00:28:30.402Z,76.60
2023-01-21T00:30:59.264Z,76.80
2023-01-21T00:33:26.628Z,76.50
2023-01-21T00:36:01.991Z,77.00
2023-01-21T00:38:29.464Z,77.10
2023-01-21T00:41:12.898Z,77.00
2023-01-21T00:43:43.406Z,76.40
2023-01-21T00:46:11.076Z,76.60
2023-01-21T00:48:37.891Z,76.80
2023-01-21T00:51:04.760Z,76.80
2023-01-21T00:53:33.927Z,76.80
2023-01-21T00:56:05.991Z,76.80
2023-01-21T00:58:33.690Z,76.80
2023-01-21T01:01:05.566Z,76.90
2023-01-21T01:03:33.587Z,76.80
2023-01-21T01:06:08.188Z,77.00
2023-01-21T01:08:35.038Z,76.80
2023-01-21T01:11:01.801Z,76.90
2023-01-21T01:13:28.848Z,76.50
2023-01-21T01:15:57.455Z,76.50
2023-01-21T01:18:25.258Z,76.60
2023-01-21T01:20:52.083Z,77.00
2023-01-21T01:23:18.888Z,76.90
2023-01-21T01:26:04.635Z,77.00
2023-01-21T01:28:32.158Z,76.70
2023-01-21T01:30:59.259Z,77.00
2023-01-21T01:33:26.872Z,76.90
2023-01-21T01:35:53.678Z,76.60
2023-01-21T01:38:22.030Z,76.80
2023-01-21T01:40:50.572Z,76.80
2023-01-21T01:43:23.667Z,77.00
2023-01-21T01:45:50.823Z,76.60
2023-01-21T01:48:28.189Z,76.60
2023-01-21T01:51:01.021Z,77.70
2023-01-21T01:53:29.578Z,76.50
2023-01-21T01:55:56.783Z,76.60
2023-01-21T01:58:24.095Z,76.60
2023-01-21T02:00:50.720Z,76.70
2023-01-21T02:03:36.323Z,76.80
2023-01-21T02:06:02.976Z,76.70
2023-01-21T02:08:29.936Z,76.90
2023-01-21T02:10:56.584Z,76.80
2023-01-21T02:13:27.895Z,76.90
2023-01-21T02:16:18.824Z,76.60
2023-01-21T02:19:21.556Z,76.60
2023-01-21T02:22:06.807Z,76.70
2023-01-21T02:24:51.732Z,76.90
2023-01-21T02:27:30.866Z,76.80
2023-01-21T02:30:16.277Z,77.00
2023-01-21T02:33:04.366Z,76.90
2023-01-21T02:36:15.842Z,76.90
2023-01-21T02:39:01.131Z,76.90
2023-01-21T02:41:56.115Z,77.00
2023-01-21T02:44:37.465Z,77.30
2023-01-21T02:47:22.811Z,77.10
2023-01-21T02:49:53.623Z,76.90
2023-01-21T02:52:22.397Z,77.40
2023-01-21T02:54:52.316Z,77.10
2023-01-21T02:57:27.884Z,77.30
2023-01-21T02:59:56.665Z,76.90
2023-01-21T03:02:51.995Z,77.40
2023-01-21T03:05:38.808Z,77.20
2023-01-21T03:08:50.791Z,77.30
2023-01-21T03:11:19.937Z,77.40
2023-01-21T03:14:20.372Z,77.20
2023-01-21T03:16:58.047Z,77.40
2023-01-21T03:19:56.602Z,77.40
2023-01-21T03:22:29.205Z,77.20
2023-01-21T03:24:57.884Z,77.30
2023-01-21T03:27:27.149Z,77.50
2023-01-21T03:29:58.585Z,77.60
2023-01-21T03:32:27.621Z,77.40
2023-01-21T03:34:55.974Z,77.40
2023-01-21T03:37:30.639Z,77.60
2023-01-21T03:40:27.263Z,77.70
2023-01-21T03:42:56.277Z,77.50
2023-01-21T03:45:37.192Z,77.30
2023-01-21T03:48:26.737Z,77.40
2023-01-21T03:50:59.785Z,77.50
2023-01-21T03:53:26.483Z,77.50
2023-01-21T03:55:53.205Z,77.40
2023-01-21T03:58:19.893Z,77.50
2023-01-21T04:00:48.223Z,77.30
2023-01-21T04:03:14.898Z,77.60
2023-01-21T04:05:41.531Z,77.60
2023-01-21T04:08:08.136Z,77.80
2023-01-21T04:10:34.748Z,77.60
2023-01-21T04:13:01.335Z,77.80
2023-01-21T04:15:27.977Z,77.50
2023-01-21T04:17:54.593Z,77.60
2023-01-21T04:20:21.254Z,77.20
2023-01-21T04:22:47.837Z,77.70
2023-01-21T04:25:14.476Z,77.50
2023-01-21T04:27:41.144Z,77.50
2023-01-21T04:30:08.405Z,78.10
2023-01-21T04:32:35.074Z,78.00
2023-01-21T04:35:01.687Z,77.90
2023-01-21T04:37:28.265Z,78.00
2023-01-21T04:39:54.875Z,77.60
2023-01-21T04:42:21.445Z,77.50
2023-01-21T04:44:48.058Z,77.60
2023-01-21T04:47:14.628Z,77.60
2023-01-21T04:49:41.288Z,77.80
2023-01-21T04:52:07.921Z,77.50
2023-01-21T04:54:34.583Z,77.80
2023-01-21T04:57:01.171Z,78.00
2023-01-21T04:59:27.731Z,78.10
2023-01-21T05:01:54.321Z,77.60
2023-01-21T05:04:20.890Z,77.50
2023-01-21T05:06:47.486Z,77.80
2023-01-21T05:09:14.105Z,77.90
2023-01-21T05:11:40.819Z,77.90
2023-01-21T05:14:07.412Z,77.80
2023-01-21T05:16:34.087Z,77.80
2023-01-21T05:19:00.725Z,77.50
2023-01-21T05:21:27.405Z,77.80
2023-01-21T05:23:54.411Z,78.00
2023-01-21T05:26:20.985Z,77.90
2023-01-21T05:28:47.515Z,78.10
2023-01-21T05:31:14.376Z,78.20
2023-01-21T05:33:43.832Z,77.80
2023-01-21T05:36:10.646Z,77.80
2023-01-21T05:38:37.184Z,78.10
2023-01-21T05:41:04.523Z,77.90
2023-01-21T05:43:31.446Z,79.10
2023-01-21T05:45:58.081Z,78.10
2023-01-21T05:48:24.893Z,78.10
2023-01-21T05:50:51.653Z,78.00
2023-01-21T05:53:18.452Z,78.20
2023-01-21T05:55:45.094Z,78.20
2023-01-21T05:58:12.134Z,78.40
2023-01-21T06:00:38.829Z,78.10
2023-01-21T06:03:05.451Z,78.40
2023-01-21T06:05:32.086Z,78.40
2023-01-21T06:07:58.717Z,78.00
2023-01-21T06:10:25.349Z,78.20
2023-01-21T06:12:52.380Z,77.90
2023-01-21T06:15:19.812Z,78.10
2023-01-21T06:17:47.494Z,78.30
2023-01-21T06:20:14.583Z,78.00
2023-01-21T06:22:41.298Z,78.00
2023-01-21T06:25:08.158Z,78.20
2023-01-21T06:27:37.110Z,78.20
2023-01-21T06:30:06.016Z,78.40
2023-01-21T06:32:33.965Z,78.40
2023-01-21T06:35:00.577Z,77.90
2023-01-21T06:37:27.505Z,78.00
2023-01-21T06:39:54.336Z,78.30
2023-01-21T06:42:21.030Z,78.10
2023-01-21T06:44:47.902Z,78.60
2023-01-21T06:47:14.888Z,78.20
2023-01-21T06:49:41.584Z,78.30
2023-01-21T06:52:08.744Z,78.90
2023-01-21T06:54:35.427Z,79.30
2023-01-21T06:57:02.204Z,79.50
2023-01-21T06:59:28.891Z,77.70
2023-01-21T07:01:58.762Z,77.50
2023-01-21T07:04:26.527Z,77.80
2023-01-21T07:06:53.826Z,78.40
2023-01-21T07:09:20.773Z,80.90
2023-01-21T07:11:47.988Z,81.00
2023-01-21T07:14:14.781Z,80.30
2023-01-21T07:16:41.576Z,80.70
2023-01-21T07:19:08.376Z,81.40
2023-01-21T07:21:35.105Z,81.20
2023-01-21T07:24:01.675Z,81.70
2023-01-21T07:26:28.264Z,81.80
2023-01-21T07:28:54.928Z,81.50
2023-01-21T07:31:21.656Z,81.40
2023-01-21T07:33:48.397Z,81.50
2023-01-21T07:36:15.021Z,81.60
2023-01-21T07:38:41.682Z,81.40
2023-01-21T07:41:08.322Z,81.20
2023-01-21T07:43:34.881Z,81.30
2023-01-21T07:46:01.512Z,81.40
2023-01-21T07:48:28.215Z,81.20
2023-01-21T07:50:59.110Z,80.90
2023-01-21T07:53:26.505Z,80.90
2023-01-21T07:55:53.240Z,80.80
2023-01-21T07:58:19.934Z,80.90
2023-01-21T08:00:46.584Z,80.60
2023-01-21T08:03:13.142Z,80.70
2023-01-21T08:05:39.931Z,80.70
2023-01-21T08:08:06.649Z,80.50
2023-01-21T08:10:33.301Z,80.30
2023-01-21T08:13:01.843Z,80.30
2023-01-21T08:15:28.487Z,80.60
2023-01-21T08:17:56.474Z,80.30
2023-01-21T08:20:23.620Z,80.30
2023-01-21T08:22:50.307Z,80.60
2023-01-21T08:25:17.491Z,80.60
2023-01-21T08:27:44.343Z,79.90
2023-01-21T08:30:11.308Z,80.30
2023-01-21T08:32:37.928Z,79.80
2023-01-21T08:35:05.308Z,79.90
2023-01-21T08:37:31.875Z,79.80
2023-01-21T08:39:58.479Z,80.10
2023-01-21T08:42:25.194Z,80.10
2023-01-21T08:44:53.923Z,79.60
2023-01-21T08:47:20.552Z,80.00
2023-01-21T08:49:47.140Z,80.20
2023-01-21T08:52:14.069Z,80.00
2023-01-21T08:54:41.336Z,80.00
2023-01-21T08:57:07.997Z,80.30
2023-01-21T08:59:34.793Z,79.80
2023-01-21T09:02:01.530Z,79.90
2023-01-21T09:04:28.172Z,80.10
2023-01-21T09:06:54.764Z,79.80
2023-01-21T09:09:21.513Z,80.00
2023-01-21T09:11:48.097Z,80.10
2023-01-21T09:14:14.686Z,79.50
2023-01-21T09:16:41.266Z,80.20
2023-01-21T09:19:07.830Z,79.80
2023-01-21T09:21:34.852Z,79.60
2023-01-21T09:24:01.672Z,79.40
2023-01-21T09:26:28.475Z,79.70
2023-01-21T09:28:57.775Z,79.70
2023-01-21T09:31:26.104Z,79.60
2023-01-21T09:34:01.612Z,79.40
2023-01-21T09:36:31.431Z,79.80
2023-01-21T09:38:58.585Z,79.30
2023-01-21T09:41:38.516Z,79.50
2023-01-21T09:44:23.799Z,79.50
2023-01-21T09:47:16.826Z,79.50
2023-01-21T09:49:57.783Z,79.70
2023-01-21T09:52:36.893Z,79.10
2023-01-21T09:55:05.601Z,79.30
2023-01-21T09:57:52.026Z,79.70
2023-01-21T10:00:24.643Z,79.50
2023-01-21T10:03:09.832Z,79.30
2023-01-21T10:06:09.773Z,79.20
2023-01-21T10:09:12.613Z,79.40
2023-01-21T10:11:51.285Z,79.60
2023-01-21T10:14:20.850Z,79.30
2023-01-21T10:17:08.516Z,79.60
2023-01-21T10:19:59.722Z,79.60
2023-01-21T10:22:28.208Z,79.50
2023-01-21T10:25:04.084Z,79.20
2023-01-21T10:27:35.089Z,79.40
2023-01-21T10:30:20.186Z,79.40
2023-01-21T10:32:51.002Z,79.20
2023-01-21T10:35:18.945Z,78.30
2023-01-21T10:37:57.730Z,78.20
2023-01-21T10:40:44.551Z,78.80
2023-01-21T10:43:29.210Z,78.90
2023-01-21T10:46:10.908Z,71.80
2023-01-21T10:48:52.893Z,70.60
2023-01-21T10:51:27.081Z,74.30
2023-01-21T10:54:05.016Z,75.50
2023-01-21T10:56:47.917Z,75.40
2023-01-21T10:59:28.525Z,75.50
2023-01-21T11:02:08.632Z,75.60
2023-01-21T11:04:37.165Z,75.70
2023-01-21T11:07:06.032Z,76.10
2023-01-21T11:09:37.371Z,76.30
2023-01-21T11:12:04.453Z,76.00
2023-01-21T11:14:31.024Z,75.70
2023-01-21T11:16:57.975Z,74.50
2023-01-21T11:19:30.805Z,60.80
2023-01-21T11:22:04.804Z,64.00
2023-01-21T11:27:02.761Z,71.70
2023-01-21T11:29:40.634Z,71.10
2023-01-21T11:32:19.566Z,71.00
2023-01-21T11:34:48.710Z,69.60
2023-01-21T11:37:26.434Z,70.30
2023-01-21T11:39:59.105Z,71.60
2023-01-21T11:42:26.160Z,70.90
2023-01-21T11:44:58.812Z,72.70
2023-01-21T11:47:36.880Z,73.60
2023-01-21T11:50:39.738Z,74.10
2023-01-21T11:53:18.636Z,73.70
2023-01-21T11:55:46.879Z,74.50
2023-01-21T11:58:19.367Z,75.20
2023-01-21T12:00:48.353Z,75.40
2023-01-21T12:03:18.649Z,76.30
2023-01-21T12:05:49.451Z,78.10
2023-01-21T12:08:25.830Z,77.90
2023-01-21T12:10:54.762Z,78.70
2023-01-21T12:13:30.311Z,79.00
2023-01-21T12:16:20.808Z,79.30
2023-01-21T12:19:16.260Z,80.30
2023-01-21T12:22:11.116Z,80.90
2023-01-21T12:25:15.471Z,80.60
2023-01-21T12:28:07.245Z,79.50
2023-01-21T12:31:00.018Z,79.40
2023-01-21T12:33:32.937Z,78.80
2023-01-21T12:36:05.621Z,79.50
2023-01-21T12:38:38.467Z,78.60
2023-01-21T12:41:11.646Z,77.60
2023-01-21T12:43:44.809Z,68.60
2023-01-21T12:46:24.687Z,71.80
2023-01-21T12:49:02.426Z,72.90
2023-01-21T12:51:37.709Z,73.50
2023-01-21T12:54:38.832Z,74.20
2023-01-21T12:57:17.505Z,74.50
2023-01-21T12:59:55.717Z,75.20
2023-01-21T13:02:34.154Z,76.10
2023-01-21T13:05:36.513Z,75.90
2023-01-21T13:08:30.557Z,76.70
2023-01-21T13:11:29.869Z,76.30
2023-01-21T13:14:08.477Z,76.10
2023-01-21T13:16:59.674Z,76.30
2023-01-21T13:19:26.498Z,76.50
2023-01-21T13:22:08.844Z,75.80
2023-01-21T13:24:46.293Z,75.30
2023-01-21T13:27:29.256Z,74.70
2023-01-21T13:30:40.300Z,74.40
2023-01-21T13:33:30.975Z,74.30
2023-01-21T13:36:09.178Z,74.10
2023-01-21T13:38:49.025Z,74.30
2023-01-21T13:41:23.065Z,74.30
2023-01-21T13:43:55.571Z,74.50
2023-01-21T13:46:55.089Z,74.60
2023-01-21T13:49:56.968Z,75.10
2023-01-21T13:52:31.368Z,74.80
2023-01-21T13:55:28.922Z,75.10
2023-01-21T13:58:04.832Z,75.20
2023-01-21T14:00:59.958Z,75.40
2023-01-21T14:03:35.215Z,76.10
2023-01-21T14:06:01.725Z,76.60
2023-01-21T14:08:44.138Z,76.90
2023-01-21T14:11:29.311Z,77.50
2023-01-21T14:14:24.179Z,76.00
2023-01-21T14:17:18.917Z,76.60
2023-01-21T14:20:07.180Z,78.00
2023-01-21T14:22:46.296Z,78.80
2023-01-21T14:25:32.456Z,78.90
2023-01-21T14:28:25.676Z,78.50
2023-01-21T14:31:04.571Z,78.30
2023-01-21T14:33:48.509Z,78.40
2023-01-21T14:36:36.562Z,79.20
2023-01-21T14:39:31.719Z,79.10
2023-01-21T14:42:04.369Z,80.40
2023-01-21T14:44:48.928Z,79.20
2023-01-21T14:47:16.671Z,79.90
2023-01-21T14:49:48.993Z,79.70
2023-01-21T14:52:18.556Z,78.80
2023-01-21T14:54:46.460Z,78.20
2023-01-21T14:57:25.521Z,78.20
2023-01-21T14:59:54.521Z,76.60
2023-01-21T15:02:34.304Z,75.40
2023-01-21T15:05:14.476Z,74.70
2023-01-21T15:07:44.515Z,74.40
2023-01-21T15:10:18.641Z,74.10
2023-01-21T15:12:59.485Z,73.50
2023-01-21T15:15:34.204Z,73.40
2023-01-21T15:18:24.001Z,72.70
2023-01-21T15:21:00.622Z,72.30
2023-01-21T15:23:30.303Z,72.20
2023-01-21T15:26:09.465Z,72.90
2023-01-21T15:28:44.847Z,72.40
2023-01-21T15:31:33.092Z,60.50
2023-01-21T15:34:11.236Z,55.00
2023-01-21T15:36:47.978Z,58.00
2023-01-21T15:39:25.254Z,60.40
2023-01-21T15:42:22.348Z,63.90
2023-01-21T15:45:13.576Z,66.00
2023-01-21T15:48:04.901Z,65.10
2023-01-21T15:50:42.364Z,68.70
2023-01-21T15:53:33.970Z,69.70
2023-01-21T15:56:37.622Z,70.00
2023-01-21T15:59:39.673Z,68.60
2023-01-21T16:02:25.980Z,69.90
2023-01-21T16:04:52.558Z,69.30
2023-01-21T16:07:41.068Z,70.10
2023-01-21T16:10:22.734Z,69.40
2023-01-21T16:13:17.192Z,68.70
2023-01-21T16:16:03.760Z,69.00
2023-01-21T16:19:13.764Z,69.80
2023-01-21T16:21:44.809Z,59.10
2023-01-21T16:24:25.033Z,58.60
2023-01-21T16:26:51.733Z,63.80
2023-01-21T16:29:18.447Z,69.40
2023-01-21T16:31:59.571Z,59.30
2023-01-21T16:34:42.976Z,60.00
2023-01-21T16:37:16.279Z,63.80
2023-01-21T16:39:43.956Z,69.40
2023-01-21T16:44:53.661Z,68.80
2023-01-21T16:47:33.357Z,66.10
2023-01-21T16:50:00.970Z,66.40
2023-01-21T16:52:28.475Z,64.00
2023-01-21T16:54:56.114Z,61.60
2023-01-21T16:57:31.497Z,65.20
2023-01-21T17:00:02.135Z,66.30
2023-01-21T17:02:31.910Z,67.00
2023-01-21T17:05:02.006Z,67.20
2023-01-21T17:07:37.643Z,67.10
2023-01-21T17:10:19.676Z,60.90
2023-01-21T17:12:55.869Z,60.00
2023-01-21T17:15:40.971Z,60.40
2023-01-21T17:18:36.548Z,61.70
2023-01-21T17:21:16.566Z,62.10
2023-01-21T17:23:46.286Z,62.50
2023-01-21T17:26:33.604Z,63.20
2023-01-21T17:29:17.425Z,63.10
2023-01-21T17:31:44.996Z,63.80
2023-01-21T17:34:14.832Z,64.10
2023-01-21T17:36:46.432Z,65.10
2023-01-21T17:39:14.514Z,64.80
2023-01-21T17:41:43.864Z,65.30
2023-01-21T17:44:22.121Z,65.80
2023-01-21T17:46:52.337Z,66.00
2023-01-21T17:49:24.436Z,66.60
2023-01-21T17:51:53.907Z,67.20
2023-01-21T17:54:29.685Z,67.30
2023-01-21T17:56:58.975Z,67.70
2023-01-21T17:59:34.225Z,68.30
2023-01-21T18:02:02.505Z,68.50
2023-01-21T18:04:29.729Z,68.90
2023-01-21T18:06:57.026Z,68.90
2023-01-21T18:09:28.202Z,69.10
2023-01-21T18:11:57.348Z,69.60
2023-01-21T18:14:26.732Z,69.70
2023-01-21T18:16:54.553Z,70.00
2023-01-21T18:19:32.941Z,70.20
2023-01-21T18:22:00.809Z,70.20
2023-01-21T18:24:27.861Z,70.80
2023-01-21T18:26:56.784Z,71.00
2023-01-21T18:29:30.725Z,71.70
2023-01-21T18:31:58.533Z,72.10
2023-01-21T18:34:25.571Z,72.10
2023-01-21T18:36:52.428Z,72.50
2023-01-21T18:39:20.450Z,72.70
2023-01-21T18:41:47.753Z,73.20
2023-01-21T18:44:15.494Z,73.30
2023-01-21T18:46:43.391Z,73.50
2023-01-21T18:49:18.928Z,73.90
2023-01-21T18:51:46.070Z,73.90
2023-01-21T18:54:18.202Z,74.40
2023-01-21T18:56:45.524Z,74.40
2023-01-21T18:59:17.565Z,74.50
2023-01-21T19:01:44.241Z,74.80
2023-01-21T19:04:15.752Z,75.40
2023-01-21T19:06:42.898Z,76.20
2023-01-21T19:09:21.635Z,75.90
2023-01-21T19:11:48.827Z,75.90
2023-01-21T19:14:15.698Z,76.10
2023-01-21T19:16:43.441Z,73.50
2023-01-21T19:19:15.859Z,77.40
2023-01-21T19:21:42.911Z,78.30
2023-01-21T19:24:11.901Z,78.40
2023-01-21T19:26:39.104Z,78.40
2023-01-21T19:29:07.636Z,78.50
2023-01-21T19:31:34.496Z,78.70
2023-01-21T19:34:01.267Z,78.80
2023-01-21T19:36:28.025Z,78.70
2023-01-21T19:38:57.622Z,79.00
2023-01-21T19:41:24.547Z,79.00
2023-01-21T19:43:51.306Z,79.40
2023-01-21T19:46:18.588Z,79.20
2023-01-21T19:48:45.469Z,79.40
2023-01-21T19:51:13.002Z,79.40
2023-01-21T19:53:39.675Z,79.60
2023-01-21T19:56:06.830Z,79.80
2023-01-21T19:58:34.014Z,79.70
2023-01-21T20:01:00.891Z,79.60
2023-01-21T20:03:30.329Z,79.40
2023-01-21T20:06:04.278Z,80.80
2023-01-21T20:08:31.607Z,82.00
2023-01-21T20:10:58.391Z,83.70
2023-01-21T20:13:25.979Z,89.70
2023-01-21T20:15:52.971Z,91.00
2023-01-21T20:18:24.614Z,90.90
2023-01-21T20:20:52.599Z,91.80
2023-01-21T20:23:20.837Z,90.60
2023-01-21T20:25:51.781Z,90.50
2023-01-21T20:28:26.225Z,87.80
2023-01-21T20:30:54.661Z,83.60
2023-01-21T20:33:23.541Z,86.00
2023-01-21T20:35:53.824Z,87.60
2023-01-21T20:38:32.120Z,88.50
2023-01-21T20:41:00.331Z,89.10
2023-01-21T20:43:28.466Z,89.70
2023-01-21T20:46:00.064Z,90.00
2023-01-21T20:48:35.344Z,90.10
2023-01-21T20:51:02.635Z,90.40
2023-01-21T20:53:30.782Z,90.30
2023-01-21T20:56:00.455Z,90.40
2023-01-21T20:58:28.197Z,91.00
2023-01-21T21:00:55.276Z,90.90
2023-01-21T21:03:23.246Z,91.60
2023-01-21T21:05:49.928Z,91.40
2023-01-21T21:08:19.974Z,91.20
2023-01-21T21:10:47.706Z,90.60
2023-01-21T21:13:14.691Z,90.20
2023-01-21T21:15:45.039Z,90.80
2023-01-21T21:18:14.535Z,90.40
2023-01-21T21:20:41.747Z,90.50
2023-01-21T21:23:13.959Z,90.60
2023-01-21T21:25:47.204Z,90.70
2023-01-21T21:28:16.423Z,90.70
2023-01-21T21:30:43.820Z,73.00
2023-01-21T21:33:21.767Z,80.90
2023-01-21T21:35:49.800Z,84.50
2023-01-21T21:38:21.781Z,84.90
2023-01-21T21:40:51.296Z,84.80
2023-01-21T21:43:38.697Z,84.20
2023-01-21T21:46:27.515Z,84.30
2023-01-21T21:48:54.258Z,84.70
2023-01-21T21:51:24.138Z,85.40
2023-01-21T21:53:50.996Z,85.20
2023-01-21T21:56:22.788Z,80.00
2023-01-21T21:58:50.425Z,81.00
2023-01-21T22:01:25.250Z,82.70
2023-01-21T22:03:52.444Z,83.60
2023-01-21T22:06:21.076Z,83.60
2023-01-21T22:08:49.177Z,84.20
2023-01-21T22:11:20.859Z,84.30
2023-01-21T22:13:50.366Z,84.40
2023-01-21T22:16:23.732Z,84.60
2023-01-21T22:18:51.446Z,84.60
2023-01-21T22:21:26.942Z,84.70
2023-01-21T22:23:54.732Z,84.60
2023-01-21T22:26:24.844Z,84.90
2023-01-21T22:28:52.389Z,84.90
2023-01-21T22:31:28.394Z,84.90
2023-01-21T22:33:56.639Z,85.80
2023-01-21T22:36:25.937Z,81.50
2023-01-21T22:38:53.316Z,67.00
2023-01-21T22:41:22.409Z,68.00
2023-01-21T22:43:50.040Z,76.30
2023-01-21T22:46:29.869Z,77.50
2023-01-21T22:48:57.273Z,76.60
2023-01-21T22:51:24.175Z,76.30
2023-01-21T22:53:51.927Z,76.20
2023-01-21T22:56:25.343Z,77.00
2023-01-21T22:58:58.319Z,77.40
2023-01-21T23:01:27.808Z,78.20
2023-01-21T23:03:54.530Z,78.80
2023-01-21T23:06:21.271Z,79.80
2023-01-21T23:08:48.000Z,80.40
2023-01-21T23:11:16.151Z,81.20
2023-01-21T23:13:42.972Z,81.30
2023-01-21T23:16:13.278Z,81.80
2023-01-21T23:18:41.874Z,82.10
2023-01-21T23:21:20.337Z,82.30
2023-01-21T23:23:47.869Z,82.70
2023-01-21T23:26:14.839Z,82.90
2023-01-21T23:28:41.655Z,83.60
2023-01-21T23:31:14.610Z,83.60
2023-01-21T23:33:42.284Z,83.60
2023-01-21T23:36:12.746Z,84.50
2023-01-21T23:38:40.598Z,84.30
2023-01-21T23:41:09.792Z,84.10
2023-01-21T23:43:37.008Z,84.20
2023-01-21T23:46:08.686Z,84.80
2023-01-21T23:48:35.559Z,84.60
2023-01-21T23:51:04.067Z,85.50
2023-01-21T23:53:32.024Z,85.60
2023-01-21T23:56:14.413Z,85.20
2023-01-21T23:58:41.453Z,85.80
